createdAt,value
2023-05-16T00:01:09.351Z,100387.81
2023-05-16T00:03:39.415Z,100390.44
2023-05-16T00:06:06.461Z,100380.22
2023-05-16T00:08:33.295Z,100379.81
2023-05-16T00:11:00.325Z,100381.91
2023-05-16T00:13:29.664Z,100387.47
2023-05-16T00:15:56.904Z,100387.25
2023-05-16T00:18:23.756Z,100388.47
2023-05-16T00:20:51.933Z,100395.69
2023-05-16T00:23:18.986Z,100387.00
2023-05-16T00:25:47.165Z,100390.88
2023-05-16T00:28:14.770Z,100384.13
2023-05-16T00:30:41.712Z,100390.72
2023-05-16T00:33:08.827Z,100393.19
2023-05-16T00:35:35.878Z,100394.72
2023-05-16T00:38:03.512Z,100386.69
2023-05-16T00:40:30.504Z,100397.63
2023-05-16T00:42:57.325Z,100392.69
2023-05-16T00:45:24.323Z,100392.69
2023-05-16T00:47:52.010Z,100383.81
2023-05-16T00:50:19.573Z,100389.91
2023-05-16T00:52:46.517Z,100394.31
2023-05-16T00:55:13.974Z,100386.59
2023-05-16T00:57:41.362Z,100386.34
2023-05-16T01:00:10.654Z,100387.31
2023-05-16T01:02:38.518Z,100385.81
2023-05-16T01:05:05.801Z,100382.94
2023-05-16T01:07:32.640Z,100380.03
2023-05-16T01:09:59.965Z,100382.13
2023-05-16T01:12:49.312Z,100382.56
2023-05-16T01:15:47.537Z,100376.47
2023-05-16T01:18:43.598Z,100382.69
2023-05-16T01:21:21.517Z,100384.63
2023-05-16T01:24:35.488Z,100383.81
2023-05-16T01:27:04.995Z,100387.25
2023-05-16T01:29:32.405Z,100385.31
2023-05-16T01:31:59.464Z,100385.31
2023-05-16T01:34:26.923Z,100406.06
2023-05-16T01:37:25.628Z,100404.53
2023-05-16T01:40:07.621Z,100400.38
2023-05-16T01:42:41.155Z,100399.28
2023-05-16T01:45:23.000Z,100405.25
2023-05-16T01:48:02.004Z,100413.41
2023-05-16T01:50:34.618Z,100405.41
2023-05-16T01:53:11.473Z,100406.38
2023-05-16T01:55:46.652Z,100407.50
2023-05-16T01:58:16.047Z,100407.09
2023-05-16T02:00:43.517Z,100405.03
2023-05-16T02:03:11.274Z,100403.91
2023-05-16T02:05:38.369Z,100413.03
2023-05-16T02:08:05.786Z,100409.97
2023-05-16T02:10:32.945Z,100408.88
2023-05-16T02:12:59.865Z,100405.69
2023-05-16T02:15:27.090Z,100401.69
2023-05-16T02:17:54.693Z,100408.59
2023-05-16T02:20:21.625Z,100406.94
2023-05-16T02:22:49.937Z,100410.81
2023-05-16T02:25:17.014Z,100400.31
2023-05-16T02:27:44.044Z,100399.75
2023-05-16T02:30:12.272Z,100409.00
2023-05-16T02:32:40.637Z,100402.09
2023-05-16T02:35:08.295Z,100407.47
2023-05-16T02:37:35.400Z,100396.84
2023-05-16T02:40:05.740Z,100410.91
2023-05-16T02:42:33.032Z,100401.38
2023-05-16T02:45:00.252Z,100406.03
2023-05-16T02:47:27.301Z,100404.63
2023-05-16T02:49:54.747Z,100401.06
2023-05-16T02:52:21.676Z,100408.94
2023-05-16T02:54:59.874Z,100405.47
2023-05-16T02:57:35.490Z,100413.09
2023-05-16T03:00:02.349Z,100424.25
2023-05-16T03:02:29.254Z,100419.69
2023-05-16T03:04:56.248Z,100425.91
2023-05-16T03:07:23.154Z,100427.00
2023-05-16T03:09:50.038Z,100425.19
2023-05-16T03:12:17.739Z,100422.00
2023-05-16T03:14:45.264Z,100430.84
2023-05-16T03:17:12.172Z,100430.16
2023-05-16T03:19:39.465Z,100434.25
2023-05-16T03:22:06.325Z,100448.28
2023-05-16T03:24:33.431Z,100439.03
2023-05-16T03:27:00.586Z,100446.50
2023-05-16T03:29:27.433Z,100438.03
2023-05-16T03:31:57.557Z,100436.53
2023-05-16T03:34:26.750Z,100443.94
2023-05-16T03:36:53.629Z,100440.78
2023-05-16T03:39:20.700Z,100443.50
2023-05-16T03:41:47.689Z,100447.09
2023-05-16T03:44:14.857Z,100448.75
2023-05-16T03:46:41.886Z,100449.44
2023-05-16T03:49:11.577Z,100448.97
2023-05-16T03:51:38.706Z,100451.72
2023-05-16T03:54:05.996Z,100444.69
2023-05-16T03:56:32.969Z,100451.84
2023-05-16T03:58:59.818Z,100458.75
2023-05-16T04:01:27.593Z,100454.47
2023-05-16T04:03:54.504Z,100456.94
2023-05-16T04:06:22.011Z,100454.94
2023-05-16T04:08:48.897Z,100461.84
2023-05-16T04:11:15.804Z,100453.25
2023-05-16T04:13:42.808Z,100455.03
2023-05-16T04:16:09.624Z,100464.34
2023-05-16T04:18:36.690Z,100456.91
2023-05-16T04:21:03.861Z,100462.59
2023-05-16T04:23:30.929Z,100471.56
2023-05-16T04:25:58.910Z,100476.56
2023-05-16T04:28:25.886Z,100469.97
2023-05-16T04:30:53.644Z,100479.63
2023-05-16T04:33:20.494Z,100479.66
2023-05-16T04:35:48.481Z,100478.72
2023-05-16T04:38:15.689Z,100475.75
2023-05-16T04:40:43.136Z,100484.19
2023-05-16T04:43:10.299Z,100482.28
2023-05-16T04:45:37.929Z,100482.19
2023-05-16T04:48:05.159Z,100483.00
2023-05-16T04:50:32.089Z,100484.13
2023-05-16T04:52:58.940Z,100484.16
2023-05-16T04:55:26.048Z,100492.63
2023-05-16T04:57:53.143Z,100496.88
2023-05-16T05:00:20.585Z,100493.41
2023-05-16T05:02:47.518Z,100500.75
2023-05-16T05:05:14.490Z,100500.31
2023-05-16T05:07:41.555Z,100507.78
2023-05-16T05:10:09.306Z,100511.94
2023-05-16T05:12:36.301Z,100519.44
2023-05-16T05:15:04.300Z,100520.53
2023-05-16T05:17:31.237Z,100530.34
2023-05-16T05:19:58.817Z,100528.50
2023-05-16T05:22:27.130Z,100527.97
2023-05-16T05:24:54.000Z,100523.56
2023-05-16T05:27:20.933Z,100534.75
2023-05-16T05:29:47.812Z,100532.00
2023-05-16T05:32:14.737Z,100528.28
2023-05-16T05:34:41.642Z,100535.03
2023-05-16T05:37:08.670Z,100534.06
2023-05-16T05:39:35.818Z,100533.78
2023-05-16T05:42:03.945Z,100539.44
2023-05-16T05:44:31.268Z,100530.31
2023-05-16T05:46:58.712Z,100535.03
2023-05-16T05:49:27.241Z,100532.13
2023-05-16T05:51:54.439Z,100535.44
2023-05-16T05:54:21.534Z,100537.38
2023-05-16T05:56:48.645Z,100539.03
2023-05-16T05:59:16.017Z,100545.91
2023-05-16T06:01:44.482Z,100546.72
2023-05-16T06:04:11.659Z,100547.91
2023-05-16T06:06:40.078Z,100544.34
2023-05-16T06:09:07.210Z,100547.97
2023-05-16T06:11:34.117Z,100542.28
2023-05-16T06:14:01.064Z,100559.47
2023-05-16T06:16:28.111Z,100559.94
2023-05-16T06:18:55.119Z,100554.16
2023-05-16T06:21:22.279Z,100567.53
2023-05-16T06:23:49.420Z,100568.38
2023-05-16T06:26:16.307Z,100571.56
2023-05-16T06:28:43.382Z,100562.56
2023-05-16T06:31:10.369Z,100571.28
2023-05-16T06:33:37.348Z,100575.41
2023-05-16T06:36:04.723Z,100574.19
2023-05-16T06:38:31.617Z,100569.63
2023-05-16T06:40:58.462Z,100577.13
2023-05-16T06:43:25.713Z,100573.50
2023-05-16T06:45:52.676Z,100584.47
2023-05-16T06:48:19.808Z,100579.63
2023-05-16T06:50:53.611Z,100574.56
2023-05-16T06:53:20.717Z,100573.31
2023-05-16T06:55:48.141Z,100576.34
2023-05-16T06:58:15.167Z,100589.06
2023-05-16T07:00:42.134Z,100580.59
2023-05-16T07:03:09.085Z,100582.13
2023-05-16T07:05:36.366Z,100588.78
2023-05-16T07:08:04.573Z,100592.09
2023-05-16T07:10:32.586Z,100591.31
2023-05-16T07:13:01.494Z,100608.69
2023-05-16T07:15:31.225Z,100601.53
2023-05-16T07:17:58.285Z,100610.09
2023-05-16T07:20:25.505Z,100603.03
2023-05-16T07:22:52.543Z,100604.81
2023-05-16T07:25:19.473Z,100616.00
2023-05-16T07:27:46.452Z,100611.16
2023-05-16T07:30:14.510Z,100618.47
2023-05-16T07:32:42.457Z,100615.50
2023-05-16T07:35:10.230Z,100622.47
2023-05-16T07:37:37.109Z,100624.34
2023-05-16T07:40:04.573Z,100626.72
2023-05-16T07:42:32.079Z,100627.41
2023-05-16T07:44:58.980Z,100632.72
2023-05-16T07:47:26.093Z,100629.69
2023-05-16T07:49:53.023Z,100637.69
2023-05-16T07:52:20.249Z,100633.34
2023-05-16T07:54:47.967Z,100649.63
2023-05-16T07:57:18.087Z,100651.16
2023-05-16T07:59:45.274Z,100650.63
2023-05-16T08:02:12.418Z,100661.63
2023-05-16T08:04:39.497Z,100658.41
2023-05-16T08:07:06.407Z,100653.75
2023-05-16T08:09:33.325Z,100660.50
2023-05-16T08:12:03.644Z,100661.63
2023-05-16T08:14:32.842Z,100667.44
2023-05-16T08:17:00.536Z,100678.31
2023-05-16T08:19:28.091Z,100680.69
2023-05-16T08:21:55.353Z,100676.47
2023-05-16T08:24:22.256Z,100673.84
2023-05-16T08:26:49.194Z,100677.69
2023-05-16T08:29:17.274Z,100676.81
2023-05-16T08:31:44.408Z,100675.50
2023-05-16T08:34:11.415Z,100676.81
2023-05-16T08:36:38.975Z,100688.00
2023-05-16T08:39:06.085Z,100683.97
2023-05-16T08:41:33.202Z,100686.47
2023-05-16T08:44:00.115Z,100682.44
2023-05-16T08:46:30.239Z,100686.47
2023-05-16T08:49:00.465Z,100689.03
2023-05-16T08:51:34.503Z,100695.53
2023-05-16T08:54:07.826Z,100696.69
2023-05-16T08:56:36.758Z,100694.41
2023-05-16T08:59:04.978Z,100689.47
2023-05-16T09:01:32.510Z,100700.88
2023-05-16T09:04:00.978Z,100706.22
2023-05-16T09:06:28.285Z,100695.94
2023-05-16T09:08:55.557Z,100691.56
2023-05-16T09:11:22.573Z,100690.50
2023-05-16T09:13:49.808Z,100693.88
2023-05-16T09:16:19.472Z,100704.09
2023-05-16T09:18:58.047Z,100688.28
2023-05-16T09:21:38.058Z,100697.66
2023-05-16T09:24:07.352Z,100697.59
2023-05-16T09:26:37.233Z,100701.50
2023-05-16T09:29:14.153Z,100702.97
2023-05-16T09:31:41.268Z,100694.69
2023-05-16T09:34:11.291Z,100710.94
2023-05-16T09:36:38.534Z,100708.13
2023-05-16T09:39:08.863Z,100707.41
2023-05-16T09:41:36.451Z,100699.22
2023-05-16T09:44:07.473Z,100708.84
2023-05-16T09:46:37.110Z,100721.22
2023-05-16T09:49:04.085Z,100726.88
2023-05-16T09:51:32.146Z,100719.00
2023-05-16T09:54:00.511Z,100724.69
2023-05-16T09:56:27.593Z,100719.72
2023-05-16T09:58:54.552Z,100716.72
2023-05-16T10:01:21.544Z,100730.25
2023-05-16T10:03:48.671Z,100714.47
2023-05-16T10:06:17.153Z,100730.78
2023-05-16T10:08:44.395Z,100727.91
2023-05-16T10:11:11.997Z,100718.34
2023-05-16T10:13:40.022Z,100728.72
2023-05-16T10:16:14.278Z,100733.31
2023-05-16T10:18:42.422Z,100730.25
2023-05-16T10:21:15.072Z,100731.47
2023-05-16T10:23:43.759Z,100744.22
2023-05-16T10:26:14.045Z,100736.72
2023-05-16T10:28:41.468Z,100746.81
2023-05-16T10:31:11.683Z,100749.63
2023-05-16T10:33:40.050Z,100756.28
2023-05-16T10:36:11.001Z,100751.63
2023-05-16T10:38:39.174Z,100752.81
2023-05-16T10:41:07.738Z,100753.22
2023-05-16T10:43:34.683Z,100755.72
2023-05-16T10:46:09.742Z,100753.56
2023-05-16T10:48:41.480Z,100766.91
2023-05-16T10:51:40.991Z,100761.28
2023-05-16T10:54:15.594Z,100761.00
2023-05-16T10:56:43.417Z,100760.19
2023-05-16T10:59:25.515Z,100761.22
2023-05-16T11:01:55.031Z,100758.06
2023-05-16T11:04:22.180Z,100757.13
2023-05-16T11:06:53.897Z,100766.22
2023-05-16T11:09:23.405Z,100766.72
2023-05-16T11:11:53.667Z,100784.81
2023-05-16T11:14:29.043Z,100776.94
2023-05-16T11:17:07.687Z,100773.63
2023-05-16T11:19:50.025Z,100765.69
2023-05-16T11:22:20.741Z,100786.16
2023-05-16T11:25:01.915Z,100775.81
2023-05-16T11:27:38.726Z,100774.25
2023-05-16T11:30:05.479Z,100788.25
2023-05-16T11:32:36.257Z,100789.94
2023-05-16T11:35:05.774Z,100804.88
2023-05-16T11:37:32.722Z,100800.69
2023-05-16T11:40:09.314Z,100783.75
2023-05-16T11:42:40.245Z,100781.91
2023-05-16T11:45:22.835Z,100786.72
2023-05-16T11:47:50.702Z,100788.00
2023-05-16T11:50:26.141Z,100795.63
2023-05-16T11:52:56.140Z,100792.84
2023-05-16T11:55:40.323Z,100798.59
2023-05-16T11:58:09.706Z,100807.22
2023-05-16T12:00:36.632Z,100814.97
2023-05-16T12:03:05.874Z,100803.56
2023-05-16T12:05:34.594Z,100792.25
2023-05-16T12:08:04.485Z,100799.34
2023-05-16T12:10:34.154Z,100800.25
2023-05-16T12:13:02.098Z,100810.56
2023-05-16T12:15:29.567Z,100799.94
2023-05-16T12:17:56.965Z,100803.19
2023-05-16T12:20:25.994Z,100819.34
2023-05-16T12:22:52.981Z,100816.25
2023-05-16T12:25:35.614Z,100825.00
2023-05-16T12:28:05.014Z,100822.13
2023-05-16T12:30:32.921Z,100817.75
2023-05-16T12:33:07.938Z,100826.31
2023-05-16T12:35:38.401Z,100821.72
2023-05-16T12:38:10.989Z,100815.22
2023-05-16T12:40:41.318Z,100823.09
2023-05-16T12:43:22.929Z,100816.59
2023-05-16T12:45:52.889Z,100819.78
2023-05-16T12:48:20.306Z,100818.50
2023-05-16T12:50:48.678Z,100828.16
2023-05-16T12:53:18.225Z,100821.06
2023-05-16T12:55:45.681Z,100828.31
2023-05-16T12:58:13.838Z,100822.50
2023-05-16T13:00:40.903Z,100824.19
2023-05-16T13:03:08.144Z,100826.16
2023-05-16T13:05:36.209Z,100818.28
2023-05-16T13:08:03.983Z,100829.53
2023-05-16T13:10:31.152Z,100829.69
2023-05-16T13:13:01.072Z,100829.84
2023-05-16T13:15:28.594Z,100835.53
2023-05-16T13:17:55.933Z,100822.94
2023-05-16T13:20:22.856Z,100814.59
2023-05-16T13:22:49.797Z,100815.81
2023-05-16T13:25:16.989Z,100816.75
2023-05-16T13:27:44.023Z,100813.97
2023-05-16T13:30:11.558Z,100816.19
2023-05-16T13:32:38.599Z,100804.81
2023-05-16T13:35:06.148Z,100818.94
2023-05-16T13:37:33.454Z,100813.13
2023-05-16T13:40:00.413Z,100817.03
2023-05-16T13:42:27.493Z,100812.97
2023-05-16T13:44:54.466Z,100814.75
2023-05-16T13:47:21.435Z,100824.41
2023-05-16T13:49:48.597Z,100816.41
2023-05-16T13:52:15.571Z,100816.16
2023-05-16T13:54:42.446Z,100806.34
2023-05-16T13:57:09.430Z,100799.81
2023-05-16T14:02:06.198Z,100819.94
2023-05-16T14:04:33.165Z,100806.75
2023-05-16T14:07:00.059Z,100808.03
2023-05-16T14:09:27.014Z,100801.81
2023-05-16T14:11:54.041Z,100801.91
2023-05-16T14:14:21.218Z,100800.53
2023-05-16T14:16:48.245Z,100806.88
2023-05-16T14:19:18.858Z,100805.03
2023-05-16T14:21:46.654Z,100787.84
2023-05-16T14:24:13.528Z,100795.06
2023-05-16T14:26:40.848Z,100799.50
2023-05-16T14:29:07.707Z,100798.94
2023-05-16T14:31:36.471Z,100792.31
2023-05-16T14:34:04.120Z,100783.97
2023-05-16T14:36:31.841Z,100782.94
2023-05-16T14:38:59.053Z,100773.22
2023-05-16T14:41:26.659Z,100800.63
2023-05-16T14:43:53.621Z,100791.44
2023-05-16T14:46:20.811Z,100779.94
2023-05-16T14:48:47.710Z,100780.53
2023-05-16T14:51:15.180Z,100774.44
2023-05-16T14:53:42.530Z,100770.75
2023-05-16T14:56:10.367Z,100781.88
2023-05-16T14:58:37.220Z,100776.75
2023-05-16T15:01:04.214Z,100785.22
2023-05-16T15:03:37.763Z,100786.41
2023-05-16T15:06:14.104Z,100788.88
2023-05-16T15:08:41.514Z,100783.16
2023-05-16T15:11:08.499Z,100771.94
2023-05-16T15:13:35.533Z,100776.25
2023-05-16T15:16:02.485Z,100782.66
2023-05-16T15:18:29.399Z,100777.28
2023-05-16T15:20:56.532Z,100775.97
2023-05-16T15:23:23.425Z,100770.31
2023-05-16T15:25:52.205Z,100765.69
2023-05-16T15:28:21.647Z,100770.97
2023-05-16T15:30:50.714Z,100771.16
2023-05-16T15:33:17.609Z,100761.41
2023-05-16T15:35:44.536Z,100767.38
2023-05-16T15:38:11.413Z,100767.13
2023-05-16T15:40:38.263Z,100776.16
2023-05-16T15:43:05.175Z,100758.84
2023-05-16T15:45:33.047Z,100765.38
2023-05-16T15:48:00.039Z,100771.06
2023-05-16T15:50:27.133Z,100769.38
2023-05-16T15:52:54.072Z,100745.81
2023-05-16T15:55:22.017Z,100771.00
2023-05-16T15:57:48.900Z,100777.94
2023-05-16T16:00:16.551Z,100769.91
2023-05-16T16:02:45.303Z,100769.53
2023-05-16T16:05:12.315Z,100767.00
2023-05-16T16:07:39.190Z,100770.16
2023-05-16T16:10:07.011Z,100770.31
2023-05-16T16:12:34.217Z,100785.28
2023-05-16T16:15:02.299Z,100781.50
2023-05-16T16:17:29.315Z,100781.81
2023-05-16T16:19:56.226Z,100779.03
2023-05-16T16:22:23.358Z,100772.34
2023-05-16T16:24:50.269Z,100784.31
2023-05-16T16:27:17.234Z,100780.94
2023-05-16T16:29:44.262Z,100784.28
2023-05-16T16:32:11.194Z,100797.38
2023-05-16T16:34:38.123Z,100790.47
2023-05-16T16:37:05.487Z,100796.72
2023-05-16T16:39:33.371Z,100788.97
2023-05-16T16:42:00.445Z,100788.13
2023-05-16T16:44:27.308Z,100787.72
2023-05-16T16:46:54.251Z,100789.28
2023-05-16T16:49:21.195Z,100784.69
2023-05-16T16:51:48.076Z,100798.56
2023-05-16T16:54:14.953Z,100791.78
2023-05-16T16:56:41.935Z,100788.97
2023-05-16T16:59:09.097Z,100786.22
2023-05-16T17:01:36.402Z,100809.91
2023-05-16T17:04:03.618Z,100803.44
2023-05-16T17:06:30.778Z,100809.84
2023-05-16T17:09:02.302Z,100801.28
2023-05-16T17:11:30.058Z,100810.13
2023-05-16T17:13:59.521Z,100807.50
2023-05-16T17:16:28.628Z,100792.53
2023-05-16T17:18:56.279Z,100809.72
2023-05-16T17:21:23.244Z,100811.38
2023-05-16T17:23:53.378Z,100816.78
2023-05-16T17:26:20.636Z,100824.25
2023-05-16T17:28:49.201Z,100818.16
2023-05-16T17:31:16.687Z,100834.09
2023-05-16T17:33:44.398Z,100830.09
2023-05-16T17:36:11.333Z,100834.94
2023-05-16T17:38:38.318Z,100832.75
2023-05-16T17:41:05.394Z,100839.66
2023-05-16T17:43:32.284Z,100839.13
2023-05-16T17:45:59.541Z,100837.88
2023-05-16T17:48:27.802Z,100841.59
2023-05-16T17:50:54.678Z,100837.19
2023-05-16T17:53:21.639Z,100834.13
2023-05-16T17:55:49.600Z,100839.81
2023-05-16T17:58:17.995Z,100832.31
2023-05-16T18:00:46.693Z,100838.03
2023-05-16T18:03:13.666Z,100849.50
2023-05-16T18:05:40.782Z,100856.28
2023-05-16T18:08:08.652Z,100832.91
2023-05-16T18:10:50.484Z,100859.63
2023-05-16T18:13:18.868Z,100852.28
2023-05-16T18:15:45.778Z,100861.84
2023-05-16T18:18:12.776Z,100863.09
2023-05-16T18:20:40.777Z,100871.41
2023-05-16T18:23:08.458Z,100874.97
2023-05-16T18:25:35.517Z,100875.69
2023-05-16T18:28:02.597Z,100864.47
2023-05-16T18:30:29.481Z,100866.66
2023-05-16T18:32:56.530Z,100871.94
2023-05-16T18:35:23.723Z,100871.72
2023-05-16T18:37:51.124Z,100868.53
2023-05-16T18:40:18.391Z,100873.78
2023-05-16T18:42:45.329Z,100882.63
2023-05-16T18:45:12.227Z,100880.72
2023-05-16T18:47:39.227Z,100889.41
2023-05-16T18:50:07.317Z,100893.44
2023-05-16T18:52:35.323Z,100898.13
2023-05-16T18:55:02.481Z,100909.75
2023-05-16T18:57:30.510Z,100892.16
2023-05-16T18:59:58.147Z,100902.50
2023-05-16T19:02:37.949Z,100904.59
2023-05-16T19:05:09.342Z,100904.44
2023-05-16T19:07:36.500Z,100930.72
2023-05-16T19:10:04.253Z,100930.59
2023-05-16T19:12:35.073Z,100931.00
2023-05-16T19:15:01.960Z,100932.50
2023-05-16T19:17:29.002Z,100942.06
2023-05-16T19:19:56.022Z,100942.84
2023-05-16T19:22:22.952Z,100941.22
2023-05-16T19:24:50.672Z,100950.31
2023-05-16T19:27:17.555Z,100950.44
2023-05-16T19:29:44.471Z,100947.50
2023-05-16T19:32:11.754Z,100954.81
2023-05-16T19:34:38.900Z,100969.19
2023-05-16T19:37:07.755Z,100969.56
2023-05-16T19:39:34.649Z,100981.75
2023-05-16T19:42:07.030Z,100983.66
2023-05-16T19:44:35.107Z,100982.75
2023-05-16T19:47:02.146Z,101000.31
2023-05-16T19:49:31.601Z,100992.13
2023-05-16T19:51:58.503Z,100994.53
2023-05-16T19:54:26.069Z,100992.19
2023-05-16T19:56:53.068Z,101002.34
2023-05-16T19:59:20.755Z,101006.69
2023-05-16T20:01:47.665Z,101003.03
2023-05-16T20:04:14.797Z,101017.00
2023-05-16T20:06:41.855Z,101013.63
2023-05-16T20:09:10.119Z,101016.25
2023-05-16T20:11:37.262Z,101027.00
2023-05-16T20:14:04.123Z,101029.78
2023-05-16T20:16:31.303Z,101030.00
2023-05-16T20:18:58.386Z,101038.50
2023-05-16T20:21:25.404Z,101043.41
2023-05-16T20:23:52.322Z,101045.78
2023-05-16T20:26:19.330Z,101045.41
2023-05-16T20:28:46.198Z,101045.09
2023-05-16T20:31:13.102Z,101038.28
2023-05-16T20:33:40.089Z,101042.47
2023-05-16T20:36:07.254Z,101037.56
2023-05-16T20:38:34.199Z,101049.97
2023-05-16T20:41:03.180Z,101048.31
2023-05-16T20:43:30.124Z,101054.63
2023-05-16T20:45:57.037Z,101055.69
2023-05-16T20:48:24.024Z,101056.50
2023-05-16T20:50:51.617Z,101065.06
2023-05-16T20:53:18.520Z,101074.56
2023-05-16T20:55:45.416Z,101073.94
2023-05-16T20:58:12.322Z,101075.63
2023-05-16T21:00:39.197Z,101080.69
2023-05-16T21:03:06.196Z,101074.13
2023-05-16T21:05:35.663Z,101078.28
2023-05-16T21:08:02.651Z,101073.50
2023-05-16T21:10:29.737Z,101081.16
2023-05-16T21:12:56.659Z,101077.03
2023-05-16T21:15:23.792Z,101080.78
2023-05-16T21:17:51.199Z,101081.56
2023-05-16T21:20:18.205Z,101087.44
2023-05-16T21:22:45.055Z,101083.47
2023-05-16T21:25:14.859Z,101087.38
2023-05-16T21:27:41.701Z,101077.22
2023-05-16T21:30:09.341Z,101081.41
2023-05-16T21:32:36.233Z,101097.97
2023-05-16T21:35:04.738Z,101094.50
2023-05-16T21:37:31.657Z,101098.78
2023-05-16T21:39:58.691Z,101082.59
2023-05-16T21:42:25.790Z,101103.63
2023-05-16T21:44:52.659Z,101105.19
2023-05-16T21:47:19.584Z,101109.91
2023-05-16T21:49:46.474Z,101108.47
2023-05-16T21:52:13.541Z,101112.25
2023-05-16T21:54:40.525Z,101117.50
2023-05-16T21:57:07.426Z,101117.69
2023-05-16T21:59:34.496Z,101116.97
2023-05-16T22:02:01.407Z,101115.19
2023-05-16T22:04:28.311Z,101118.63
2023-05-16T22:06:55.206Z,101109.56
2023-05-16T22:09:22.197Z,101114.28
2023-05-16T22:11:49.073Z,101120.94
2023-05-16T22:14:16.027Z,101118.22
2023-05-16T22:16:43.156Z,101124.63
2023-05-16T22:19:10.070Z,101125.69
2023-05-16T22:21:37.043Z,101131.13
2023-05-16T22:24:04.123Z,101129.88
2023-05-16T22:26:31.087Z,101122.97
2023-05-16T22:28:58.116Z,101128.22
2023-05-16T22:31:25.082Z,101129.66
2023-05-16T22:33:52.095Z,101126.22
2023-05-16T22:36:19.097Z,101137.63
2023-05-16T22:38:46.041Z,101128.22
2023-05-16T22:41:12.960Z,101133.66
2023-05-16T22:43:39.947Z,101130.53
2023-05-16T22:46:06.915Z,101124.34
2023-05-16T22:48:34.143Z,101128.13
2023-05-16T22:51:02.465Z,101143.06
2023-05-16T22:53:29.909Z,101143.38
2023-05-16T22:55:57.041Z,101140.91
2023-05-16T22:58:23.975Z,101138.69
2023-05-16T23:00:50.907Z,101137.41
2023-05-16T23:03:17.905Z,101137.09
2023-05-16T23:05:44.795Z,101137.59
2023-05-16T23:08:11.707Z,101142.94
2023-05-16T23:10:38.663Z,101146.41
2023-05-16T23:13:05.642Z,101135.72
2023-05-16T23:15:32.611Z,101137.59
2023-05-16T23:17:59.555Z,101148.88
2023-05-16T23:20:26.582Z,101145.97
2023-05-16T23:22:53.586Z,101145.41
2023-05-16T23:25:20.884Z,101144.88
2023-05-16T23:27:47.797Z,101155.44
2023-05-16T23:30:15.370Z,101155.53
2023-05-16T23:32:42.288Z,101163.38
2023-05-16T23:35:09.497Z,101163.50
2023-05-16T23:37:36.792Z,101161.81
2023-05-16T23:40:04.064Z,101163.56
2023-05-16T23:42:31.202Z,101161.47
2023-05-16T23:44:58.093Z,101162.63
2023-05-16T23:47:25.015Z,101170.09
2023-05-16T23:49:51.977Z,101175.13
2023-05-16T23:52:19.014Z,101177.91
2023-05-16T23:54:45.955Z,101177.72
2023-05-16T23:57:14.240Z,101182.94
2023-05-16T23:59:41.316Z,101182.03
